x

Boston 16 Nm East Of Boston, Ma (44013) Wave Buoy

10:50am - Wed 24th May 2017 All times are EDT. -4 hours from GMT.

  • Sig Wave height 1.3ft
  • Swell Direction
  • Peak Period 6s
  • Average Period 5s
  • Wind
    4mph, 4mph gusts
  • Sea Temp 55°f
  • 空気 Temp 55°f
  • Sea Pressure 1008mb
  • Boston 16 Nm East Of Boston, Ma
  • Boston 16 Nm East Of Boston, Ma

More Historic Weather Station data

Upgrade to MSW Pro to gain access to the past 30 days of data for over 8000 Wavebouys and Weather Stations around the globe.

Join Pro

Comparision Forecast

View Surf forecast
   
Wed 05/24 10:50am 1.3ft 6s 5s 4 4 mph 1008mb 55f 55f
9:50am 1.3ft 6s 5s  -  2 mph 1007.9mb 55f 55f
8:50am 1.3ft 5s 5s 4 4 mph 1007.9mb 54f 54f
7:50am 1.3ft 5s 5s 2 4 mph 1007.8mb 54f 54f
6:50am 1ft 9s 5s 7 7 mph 1007.7mb 54f 54f
5:50am 1ft 9s 6s 7 7 mph 1007.8mb 54f 54f
4:50am 1ft 5s 6s 4 4 mph 1007.6mb 54f 54f
3:50am 1ft 6s 6s 2 2 mph 1008mb 54f 54f
2:50am 1ft 9s 6s 2 2 mph 1008.3mb 54f 55f
1:50am 1ft 6s 6s 4 4 mph 1008.1mb 54f 55f
12:50am 1ft 6s 6s 9 9 mph 1008.7mb 54f 55f
Tue 05/23 11:50pm 1ft 10s 5s 9 9 mph 1008.9mb 54f 55f
10:50pm 1ft 7s 5s 9 11 mph 1009.2mb 54f 55f
9:50pm 1ft 6s 5s 9 11 mph 1009.3mb 54f 55f
8:50pm 1.3ft 6s 5s 9 11 mph 1009.3mb 54f 55f
7:50pm 1.3ft 5s 5s 11 11 mph 1009.3mb 54f 54f
6:50pm 1.3ft 6s 5s 9 9 mph 1009.5mb 55f 54f
5:50pm 1.3ft 6s 5s 9 9 mph 1009.8mb 55f 54f
4:50pm 1.3ft 6s 5s 7 7 mph 1009.9mb 56f 55f
3:50pm 1.3ft 6s 5s 7 7 mph 1010.6mb 56f 55f
2:50pm 1ft 6s 5s 4 4 mph 1010.9mb 56f 54f
1:50pm 1ft 6s 5s 4 4 mph 1011.1mb 56f 54f
12:50pm 1.3ft 6s 4s 2 2 mph 1012.2mb 55f 54f
11:50am 1.3ft 6s 4s 7 7 mph 1011.9mb 55f 53f
10:50am 1.3ft 6s 5s 7 7 mph 1012.2mb 54f 53f
9:50am 1.3ft 6s 4s 4 7 mph 1012.7mb 53f 53f
8:50am 1.3ft 6s 4s 9 13 mph 1012.9mb 53f 53f
7:50am 1.6ft 4s 4s 9 11 mph 1012.7mb 53f 53f
6:50am 1.6ft 4s 4s 7 9 mph 1013.1mb 53f 53f
5:50am 1.6ft 5s 4s 9 9 mph 1012.4mb 53f 53f
4:50am 1.6ft 5s 4s 7 9 mph 1012.3mb 53f 52f
3:50am 1.6ft 4s 4s 11 13 mph 1012.3mb 53f 52f
2:50am 1.6ft 4s 4s 11 11 mph 1012.5mb 54f 52f
1:50am 1.6ft 4s 4s 9 9 mph 1012.7mb 54f 53f
12:50am 1.6ft 4s 4s 4 4 mph 1013.7mb 54f 53f
Mon 05/22 11:50pm 1.6ft 4s 4s 4 7 mph 1014.2mb 54f 53f
10:50pm 1.6ft 4s 4s 9 11 mph 1014.3mb 54f 54f
9:50pm 1.6ft 4s 3s 11 13 mph 1015.1mb 54f 54f
8:50pm 2ft 4s 3s 11 13 mph 1015.4mb 55f 53f
7:50pm 2ft 4s 3s 16 18 mph 1015.8mb 55f 53f
6:50pm 2ft 4s 3s 16 18 mph 1016.7mb 55f 52f
5:50pm 1.6ft 3s 3s 18 20 mph 1017.2mb 55f 53f
4:50pm 1.3ft 3s 3s 11 16 mph 1017.9mb 55f 53f
3:50pm 1ft 3s 3s 13 18 mph 1018.8mb 55f 53f
2:50pm 1.3ft 3s 3s 9 13 mph 1019.6mb 54f 52f
1:50pm 1ft 3s 3s 16 18 mph 1020.1mb 54f 52f
12:50pm 1ft 3s 3s 9 11 mph 1021mb 54f 51f
11:50am 1ft 3s 3s 9 16 mph 1021.7mb 53f 52f
10:50am 1ft 3s 3s 11 13 mph 1021.8mb 53f 53f
9:50am 0.7ft  -  3s 11 13 mph 1022mb 53f 53f
8:50am 0.7ft  -  3s 13 16 mph 1022.3mb 53f 53f
7:50am 0.7ft  -  4s 7 9 mph 1022.8mb 53f 53f
6:50am 0.7ft  -  5s 9 11 mph 1022.4mb 53f 53f
5:50am 0.7ft  -  5s 7 9 mph 1022.5mb 53f 54f
4:50am 0.7ft  -  4s 7 7 mph 1022.9mb 53f 54f
3:50am 0.7ft  -  3s 7 9 mph 1022.3mb 53f 54f
2:50am 0.7ft  -  3s 7 9 mph 1022.4mb 53f 54f
1:50am 0.7ft  -  3s 9 11 mph 1023.2mb 53f 54f
12:50am 0.7ft  -  3s 9 11 mph 1023.5mb 53f 54f
Sun 05/21 11:50pm 1ft 2s 3s 13 13 mph 1023.6mb 53f 54f
10:50pm 0.7ft  -  3s 13 13 mph 1024mb 54f 55f
9:50pm 0.7ft  -  3s 11 13 mph 1024.8mb 54f 55f
8:50pm 0.7ft  -  4s 11 13 mph 1024.8mb 55f 56f
7:50pm 0.7ft  -  4s 11 11 mph 1025mb 55f 56f
6:50pm 0.7ft  -  4s 9 11 mph 1025.3mb 56f 56f
5:50pm 0.7ft  -  4s 9 9 mph 1025.6mb 56f 56f
4:50pm 1ft 9s 4s 9 11 mph 1026.1mb 56f 55f
3:50pm 1ft 5s 4s 9 9 mph 1026.3mb 56f 55f
2:50pm 0.7ft  -  4s 9 11 mph 1027.3mb 56f 55f
1:50pm 0.7ft  -  4s 7 9 mph 1028mb 56f 55f
12:50pm 0.7ft  -  4s 7 7 mph 1028.6mb 55f 54f
11:50am 0.7ft  -  4s 7 7 mph 1028.6mb 54f 54f
10:50am 1ft 10s 4s 4 7 mph 1029.3mb 53f 54f
9:50am 1ft 10s 4s 9 11 mph 1028.6mb 53f 53f
8:50am 0.7ft  -  5s 9 11 mph 1028.4mb 53f 53f
7:50am 0.7ft  -  5s 4 4 mph 1028.3mb 53f 53f
6:50am 1ft 4s 4s 2 2 mph 1027.8mb 53f 53f
5:50am 1ft 5s 5s 2 4 mph 1027.4mb 52f 52f
4:50am 1ft 5s 4s 4 7 mph 1027.1mb 52f 52f
3:50am 1ft 6s 4s 4 4 mph 1027mb 53f 52f
2:50am 1ft 5s  -  7 7 mph 1026mb 53f 53f
1:50am 1ft 5s 4s 7 7 mph 1026.1mb 53f 53f
12:50am 1ft 5s 4s 7 7 mph 1026.1mb 53f 53f
Sat 05/20 11:50pm 1ft 4s  -  9 11 mph 1025.9mb 53f 54f
10:50pm 1ft 5s 4s 9 9 mph 1025.9mb 53f 54f
9:50pm 1ft 5s 4s 7 9 mph 1025.4mb 53f 54f
8:50pm 1ft 4s 4s 9 11 mph 1024.6mb 54f 53f
7:50pm 1.3ft 4s 3s 11 13 mph 1024.3mb 54f 54f
6:50pm 1.3ft 4s 4s 13 16 mph 1024.1mb 55f 53f
5:50pm 1.6ft 4s 4s 11 11 mph 1024.4mb 55f 53f
4:50pm 1.6ft 4s 4s 11 11 mph 1024.5mb 54f 53f
3:50pm 1.6ft 4s 4s 9 11 mph 1024.9mb 54f 53f